createdAt,value
2023-04-16T00:02:04.396Z,2.28
2023-04-16T00:04:31.572Z,2.58
2023-04-16T00:06:58.576Z,3.45
2023-04-16T00:09:25.707Z,2.88
2023-04-16T00:11:52.701Z,2.60
2023-04-16T00:14:19.624Z,2.60
2023-04-16T00:16:46.792Z,2.70
2023-04-16T00:19:13.872Z,2.60
2023-04-16T00:21:40.878Z,2.83
2023-04-16T00:24:07.870Z,2.15
2023-04-16T00:26:34.826Z,2.65
2023-04-16T00:29:02.196Z,2.38
2023-04-16T00:31:33.957Z,2.65
2023-04-16T00:34:03.712Z,2.05
2023-04-16T00:36:30.980Z,3.20
2023-04-16T00:38:57.964Z,2.47
2023-04-16T00:41:25.066Z,2.97
2023-04-16T00:43:51.984Z,3.00
2023-04-16T00:46:24.725Z,3.50
2023-04-16T00:48:53.856Z,3.45
2023-04-16T00:51:21.622Z,3.03
2023-04-16T00:53:49.010Z,2.72
2023-04-16T00:56:17.521Z,3.10
2023-04-16T00:58:45.171Z,2.90
2023-04-16T01:01:14.462Z,3.05
2023-04-16T01:03:46.029Z,2.50
2023-04-16T01:06:13.488Z,2.38
2023-04-16T01:08:42.031Z,2.25
2023-04-16T01:11:11.088Z,2.35
2023-04-16T01:13:41.195Z,2.40
2023-04-16T01:16:09.533Z,2.15
2023-04-16T01:18:37.320Z,2.10
2023-04-16T01:21:05.072Z,2.15
2023-04-16T01:23:32.322Z,1.95
2023-04-16T01:25:59.479Z,2.55
2023-04-16T01:28:26.856Z,2.08
2023-04-16T01:30:53.817Z,2.20
2023-04-16T01:33:43.970Z,2.40
2023-04-16T01:36:12.279Z,2.13
2023-04-16T01:38:39.193Z,2.95
2023-04-16T01:41:06.212Z,2.50
2023-04-16T01:43:33.208Z,2.13
2023-04-16T01:46:17.560Z,2.70
2023-04-16T01:48:44.831Z,1.95
2023-04-16T01:51:11.925Z,2.22
2023-04-16T01:53:39.121Z,2.38
2023-04-16T01:56:06.952Z,2.67
2023-04-16T01:58:34.651Z,2.22
2023-04-16T02:01:01.838Z,2.03
2023-04-16T02:03:29.009Z,2.15
2023-04-16T02:05:56.317Z,2.00
2023-04-16T02:08:23.518Z,2.13
2023-04-16T02:10:51.117Z,1.92
2023-04-16T02:13:18.169Z,2.60
2023-04-16T02:15:48.654Z,2.15
2023-04-16T02:18:19.413Z,2.15
2023-04-16T02:20:48.015Z,2.20
2023-04-16T02:23:15.324Z,2.00
2023-04-16T02:25:44.175Z,1.70
2023-04-16T02:28:15.655Z,2.20
2023-04-16T02:30:43.951Z,1.98
2023-04-16T02:33:13.068Z,2.28
2023-04-16T02:35:48.710Z,1.73
2023-04-16T02:38:15.678Z,2.10
2023-04-16T02:40:42.631Z,2.33
2023-04-16T02:43:09.705Z,2.00
2023-04-16T02:45:36.997Z,2.05
2023-04-16T02:48:04.206Z,1.80
2023-04-16T02:50:31.284Z,1.60
2023-04-16T02:52:58.312Z,1.80
2023-04-16T02:55:25.398Z,2.00
2023-04-16T02:57:53.021Z,1.90
2023-04-16T03:00:20.170Z,2.00
2023-04-16T03:02:47.419Z,1.85
2023-04-16T03:05:14.561Z,2.17
2023-04-16T03:07:41.537Z,2.15
2023-04-16T03:10:09.606Z,1.98
2023-04-16T03:12:36.597Z,2.53
2023-04-16T03:15:07.320Z,1.90
2023-04-16T03:17:34.393Z,2.30
2023-04-16T03:20:01.748Z,1.95
2023-04-16T03:22:28.660Z,1.92
2023-04-16T03:24:55.596Z,1.77
2023-04-16T03:27:22.591Z,2.00
2023-04-16T03:29:49.744Z,1.83
2023-04-16T03:32:17.451Z,2.47
2023-04-16T03:34:44.868Z,2.17
2023-04-16T03:37:14.583Z,2.00
2023-04-16T03:39:41.564Z,2.17
2023-04-16T03:42:10.875Z,1.80
2023-04-16T03:44:37.820Z,2.17
2023-04-16T03:47:04.813Z,1.63
2023-04-16T03:49:31.775Z,1.40
2023-04-16T03:51:59.666Z,2.10
2023-04-16T03:54:26.944Z,2.10
2023-04-16T03:57:05.733Z,2.15
2023-04-16T03:59:33.396Z,1.80
2023-04-16T04:02:00.905Z,1.70
2023-04-16T04:04:28.156Z,2.08
2023-04-16T04:06:55.296Z,1.85
2023-04-16T04:09:23.603Z,2.20
2023-04-16T04:11:50.857Z,2.00
2023-04-16T04:14:17.985Z,2.15
2023-04-16T04:16:45.004Z,1.48
2023-04-16T04:19:12.579Z,2.03
2023-04-16T04:21:39.642Z,2.00
2023-04-16T04:24:06.836Z,1.92
2023-04-16T04:26:34.435Z,1.90
2023-04-16T04:29:01.427Z,1.90
2023-04-16T04:31:28.445Z,1.70
2023-04-16T04:33:56.277Z,2.20
2023-04-16T04:36:23.376Z,2.00
2023-04-16T04:38:50.509Z,1.90
2023-04-16T04:41:17.683Z,2.17
2023-04-16T04:43:44.619Z,1.80
2023-04-16T04:46:12.281Z,1.83
2023-04-16T04:48:40.790Z,2.10
2023-04-16T04:51:07.868Z,2.15
2023-04-16T04:53:35.086Z,2.25
2023-04-16T04:56:11.807Z,2.08
2023-04-16T04:58:41.489Z,2.63
2023-04-16T05:01:08.686Z,2.47
2023-04-16T05:03:36.112Z,2.30
2023-04-16T05:06:03.137Z,1.85
2023-04-16T05:08:30.104Z,2.70
2023-04-16T05:10:56.990Z,2.15
2023-04-16T05:13:24.053Z,2.03
2023-04-16T05:15:51.013Z,2.17
2023-04-16T05:18:18.043Z,2.75
2023-04-16T05:20:45.047Z,2.45
2023-04-16T05:23:12.001Z,2.00
2023-04-16T05:25:38.943Z,2.55
2023-04-16T05:28:05.848Z,2.10
2023-04-16T05:30:32.905Z,1.83
2023-04-16T05:33:00.025Z,1.95
2023-04-16T05:35:27.768Z,2.05
2023-04-16T05:37:54.894Z,2.15
2023-04-16T05:40:22.068Z,2.13
2023-04-16T05:42:49.386Z,2.05
2023-04-16T05:45:16.378Z,1.73
2023-04-16T05:47:43.490Z,1.70
2023-04-16T05:50:11.078Z,1.90
2023-04-16T05:52:38.719Z,1.98
2023-04-16T05:55:06.357Z,1.77
2023-04-16T05:57:33.781Z,2.05
2023-04-16T06:00:00.840Z,2.00
2023-04-16T06:02:27.929Z,1.80
2023-04-16T06:04:55.008Z,2.20
2023-04-16T06:07:22.497Z,1.50
2023-04-16T06:09:49.411Z,2.30
2023-04-16T06:12:16.519Z,2.03
2023-04-16T06:14:43.459Z,1.77
2023-04-16T06:17:10.456Z,2.05
2023-04-16T06:19:37.431Z,1.58
2023-04-16T06:22:06.423Z,2.13
2023-04-16T06:24:34.518Z,2.22
2023-04-16T06:27:01.708Z,2.35
2023-04-16T06:29:40.438Z,2.55
2023-04-16T06:32:09.102Z,2.05
2023-04-16T06:34:37.992Z,2.70
2023-04-16T06:37:04.978Z,2.45
2023-04-16T06:39:31.916Z,2.15
2023-04-16T06:41:58.985Z,2.13
2023-04-16T06:44:26.028Z,2.40
2023-04-16T06:46:53.127Z,2.10
2023-04-16T06:49:20.220Z,2.50
2023-04-16T06:51:47.423Z,2.60
2023-04-16T06:54:14.413Z,2.47
2023-04-16T06:56:41.391Z,2.65
2023-04-16T06:59:08.488Z,2.40
2023-04-16T07:01:36.479Z,2.97
2023-04-16T07:04:04.459Z,2.58
2023-04-16T07:06:32.024Z,2.78
2023-04-16T07:08:59.008Z,2.83
2023-04-16T07:11:26.523Z,3.40
2023-04-16T07:13:53.927Z,2.72
2023-04-16T07:16:21.025Z,3.08
2023-04-16T07:18:48.336Z,4.07
2023-04-16T07:21:15.500Z,3.60
2023-04-16T07:23:42.544Z,3.13
2023-04-16T07:26:09.665Z,3.00
2023-04-16T07:28:36.743Z,3.20
2023-04-16T07:31:03.794Z,3.70
2023-04-16T07:33:30.768Z,3.97
2023-04-16T07:36:06.476Z,3.72
2023-04-16T07:38:34.793Z,3.45
2023-04-16T07:41:03.500Z,2.72
2023-04-16T07:43:30.507Z,3.20
2023-04-16T07:45:57.788Z,3.13
2023-04-16T07:48:25.018Z,3.40
2023-04-16T07:50:51.993Z,3.65
2023-04-16T07:53:19.047Z,3.47
2023-04-16T07:55:46.416Z,4.07
2023-04-16T07:58:13.344Z,3.08
2023-04-16T08:00:40.485Z,3.55
2023-04-16T08:03:07.793Z,2.85
2023-04-16T08:05:34.874Z,3.80
2023-04-16T08:08:01.898Z,3.40
2023-04-16T08:10:28.893Z,4.32
2023-04-16T08:12:55.838Z,5.13
2023-04-16T08:15:23.156Z,4.18
2023-04-16T08:17:50.185Z,5.55
2023-04-16T08:20:19.290Z,4.25
2023-04-16T08:22:46.845Z,4.45
2023-04-16T08:25:14.031Z,4.55
2023-04-16T08:27:40.953Z,4.60
2023-04-16T08:30:08.425Z,4.82
2023-04-16T08:32:35.526Z,5.70
2023-04-16T08:35:02.649Z,5.15
2023-04-16T08:37:29.704Z,4.68
2023-04-16T08:39:57.336Z,6.43
2023-04-16T08:42:34.260Z,4.72
2023-04-16T08:45:12.336Z,5.45
2023-04-16T08:47:40.109Z,5.63
2023-04-16T08:50:08.907Z,5.25
2023-04-16T08:52:42.739Z,5.75
2023-04-16T08:55:16.833Z,5.65
2023-04-16T08:58:04.136Z,5.32
2023-04-16T09:00:32.806Z,5.20
2023-04-16T09:03:00.634Z,4.53
2023-04-16T09:05:29.428Z,4.95
2023-04-16T09:07:56.348Z,5.13
2023-04-16T09:10:25.646Z,4.80
2023-04-16T09:12:55.336Z,4.78
2023-04-16T09:15:22.529Z,5.78
2023-04-16T09:17:49.483Z,6.20
2023-04-16T09:20:16.694Z,5.43
2023-04-16T09:22:44.358Z,5.82
2023-04-16T09:25:12.232Z,5.45
2023-04-16T09:27:39.875Z,5.50
2023-04-16T09:30:27.174Z,6.28
2023-04-16T09:33:14.040Z,5.38
2023-04-16T09:35:49.395Z,5.60
2023-04-16T09:38:16.949Z,6.20
2023-04-16T09:40:44.092Z,6.38
2023-04-16T09:43:18.560Z,5.47
2023-04-16T09:45:53.389Z,5.47
2023-04-16T09:48:33.664Z,6.20
2023-04-16T09:51:01.497Z,6.07
2023-04-16T09:53:30.718Z,6.13
2023-04-16T09:55:59.634Z,6.38
2023-04-16T09:58:27.027Z,5.70
2023-04-16T10:01:03.701Z,4.93
2023-04-16T10:03:32.323Z,6.15
2023-04-16T10:06:20.022Z,4.90
2023-04-16T10:08:49.930Z,5.30
2023-04-16T10:11:18.287Z,5.70
2023-04-16T10:13:45.554Z,5.15
2023-04-16T10:16:13.251Z,4.97
2023-04-16T10:18:41.911Z,5.72
2023-04-16T10:21:11.880Z,4.60
2023-04-16T10:23:40.088Z,5.35
2023-04-16T10:26:07.132Z,4.95
2023-04-16T10:28:35.718Z,5.40
2023-04-16T10:31:08.158Z,5.28
2023-04-16T10:33:38.297Z,5.40
2023-04-16T10:36:13.191Z,5.22
2023-04-16T10:38:47.768Z,4.63
2023-04-16T10:41:14.859Z,5.10
2023-04-16T10:43:47.451Z,5.22
2023-04-16T10:46:26.810Z,4.70
2023-04-16T10:48:55.862Z,4.95
2023-04-16T10:51:35.149Z,6.03
2023-04-16T10:54:20.073Z,5.45
2023-04-16T10:56:47.980Z,5.03
2023-04-16T10:59:18.933Z,5.18
2023-04-16T11:01:47.632Z,5.07
2023-04-16T11:04:21.284Z,5.30
2023-04-16T11:07:06.599Z,5.20
2023-04-16T11:09:56.284Z,5.38
2023-04-16T11:12:32.731Z,5.65
2023-04-16T11:15:01.808Z,5.45
2023-04-16T11:17:39.988Z,5.30
2023-04-16T11:20:27.934Z,6.15
2023-04-16T11:22:56.708Z,4.82
2023-04-16T11:25:26.611Z,5.35
2023-04-16T11:27:54.683Z,5.55
2023-04-16T11:30:34.105Z,5.90
2023-04-16T11:33:11.892Z,6.30
2023-04-16T11:35:39.901Z,6.35
2023-04-16T11:38:07.444Z,5.97
2023-04-16T11:40:34.684Z,6.07
2023-04-16T11:43:14.159Z,6.32
2023-04-16T11:46:10.047Z,5.70
2023-04-16T11:48:51.096Z,5.88
2023-04-16T11:51:19.314Z,5.40
2023-04-16T11:53:54.043Z,5.88
2023-04-16T11:56:28.352Z,5.47
2023-04-16T11:59:31.050Z,5.15
2023-04-16T12:01:58.103Z,5.15
2023-04-16T12:04:26.871Z,5.40
2023-04-16T12:07:13.599Z,7.07
2023-04-16T12:09:42.111Z,6.22
2023-04-16T12:12:31.476Z,7.10
2023-04-16T12:15:03.799Z,4.82
2023-04-16T12:17:35.413Z,5.53
2023-04-16T12:20:11.098Z,6.35
2023-04-16T12:22:40.137Z,6.30
2023-04-16T12:25:17.652Z,6.75
2023-04-16T12:27:54.588Z,5.55
2023-04-16T12:30:23.606Z,6.57
2023-04-16T12:32:52.627Z,6.90
2023-04-16T12:35:35.669Z,6.93
2023-04-16T12:38:03.613Z,7.97
2023-04-16T12:40:30.696Z,7.15
2023-04-16T12:42:57.889Z,6.70
2023-04-16T12:45:25.551Z,8.32
2023-04-16T12:47:52.831Z,7.22
2023-04-16T12:50:19.806Z,6.82
2023-04-16T12:52:46.883Z,7.53
2023-04-16T12:55:14.318Z,7.20
2023-04-16T12:57:41.570Z,7.85
2023-04-16T13:00:10.696Z,7.38
2023-04-16T13:02:37.994Z,7.25
2023-04-16T13:05:05.488Z,7.10
2023-04-16T13:07:33.998Z,7.25
2023-04-16T13:10:01.309Z,9.65
2023-04-16T13:12:28.497Z,8.52
2023-04-16T13:14:56.071Z,8.25
2023-04-16T13:17:23.062Z,7.53
2023-04-16T13:19:50.044Z,9.38
2023-04-16T13:22:17.014Z,8.20
2023-04-16T13:24:44.159Z,9.75
2023-04-16T13:27:11.396Z,9.07
2023-04-16T13:29:38.453Z,8.95
2023-04-16T13:32:05.818Z,7.57
2023-04-16T13:34:33.211Z,7.38
2023-04-16T13:37:00.137Z,7.55
2023-04-16T13:39:27.140Z,7.93
2023-04-16T13:41:54.038Z,8.02
2023-04-16T13:44:21.472Z,6.72
2023-04-16T13:46:48.385Z,7.85
2023-04-16T13:49:15.445Z,7.97
2023-04-16T13:51:44.724Z,7.18
2023-04-16T13:54:11.909Z,7.88
2023-04-16T13:56:39.178Z,8.75
2023-04-16T13:59:06.494Z,9.00
2023-04-16T14:01:33.503Z,8.73
2023-04-16T14:04:06.288Z,8.30
2023-04-16T14:06:34.642Z,7.55
2023-04-16T14:09:02.003Z,8.45
2023-04-16T14:11:29.219Z,8.15
2023-04-16T14:13:56.308Z,8.88
2023-04-16T14:16:23.544Z,8.73
2023-04-16T14:18:51.928Z,7.95
2023-04-16T14:21:19.256Z,7.75
2023-04-16T14:23:46.840Z,8.23
2023-04-16T14:26:14.509Z,9.15
2023-04-16T14:28:41.966Z,8.48
2023-04-16T14:31:09.122Z,8.75
2023-04-16T14:33:36.902Z,8.27
2023-04-16T14:36:04.126Z,8.50
2023-04-16T14:38:32.240Z,8.15
2023-04-16T14:41:00.543Z,8.93
2023-04-16T14:43:27.780Z,8.30
2023-04-16T14:45:54.926Z,8.38
2023-04-16T14:48:22.223Z,8.30
2023-04-16T14:50:49.340Z,8.35
2023-04-16T14:53:16.359Z,8.43
2023-04-16T14:55:43.347Z,8.43
2023-04-16T14:58:10.825Z,8.18
2023-04-16T15:00:38.047Z,8.48
2023-04-16T15:03:05.841Z,8.75
2023-04-16T15:05:33.202Z,8.75
2023-04-16T15:08:00.681Z,8.10
2023-04-16T15:10:28.084Z,8.45
2023-04-16T15:12:54.993Z,7.85
2023-04-16T15:15:21.983Z,7.63
2023-04-16T15:17:51.058Z,8.63
2023-04-16T15:20:18.544Z,8.60
2023-04-16T15:22:45.519Z,8.02
2023-04-16T15:25:12.663Z,8.05
2023-04-16T15:27:40.036Z,7.30
2023-04-16T15:30:08.130Z,7.38
2023-04-16T15:32:35.269Z,7.88
2023-04-16T15:35:03.520Z,7.70
2023-04-16T15:37:31.078Z,7.25
2023-04-16T15:39:58.114Z,7.15
2023-04-16T15:42:25.210Z,7.55
2023-04-16T15:44:52.187Z,6.50
2023-04-16T15:47:19.310Z,6.88
2023-04-16T15:49:46.273Z,6.97
2023-04-16T15:52:13.569Z,6.32
2023-04-16T15:54:40.918Z,7.60
2023-04-16T15:57:07.892Z,6.82
2023-04-16T15:59:34.815Z,6.38
2023-04-16T16:02:02.088Z,5.82
2023-04-16T16:04:29.922Z,6.55
2023-04-16T16:06:57.221Z,6.78
2023-04-16T16:09:27.973Z,7.30
2023-04-16T16:11:55.899Z,6.85
2023-04-16T16:14:23.452Z,7.20
2023-04-16T16:16:50.759Z,9.23
2023-04-16T16:19:17.750Z,8.02
2023-04-16T16:21:44.733Z,8.30
2023-04-16T16:24:11.617Z,7.55
2023-04-16T16:26:38.667Z,7.55
2023-04-16T16:29:06.281Z,7.55
2023-04-16T16:31:33.538Z,10.73
2023-04-16T16:34:01.131Z,12.68
2023-04-16T16:36:29.865Z,14.63
2023-04-16T16:38:57.244Z,13.65
2023-04-16T16:41:24.359Z,12.60
2023-04-16T16:43:51.393Z,11.75
2023-04-16T16:46:18.456Z,12.65
2023-04-16T16:48:45.560Z,12.55
2023-04-16T16:51:12.814Z,11.20
2023-04-16T16:53:39.870Z,11.57
2023-04-16T16:56:06.917Z,12.25
2023-04-16T16:58:33.875Z,11.98
2023-04-16T17:01:00.957Z,11.35
2023-04-16T17:03:28.803Z,10.98
2023-04-16T17:05:55.979Z,11.20
2023-04-16T17:08:23.082Z,12.05
2023-04-16T17:10:50.450Z,12.52
2023-04-16T17:13:19.973Z,13.68
2023-04-16T17:15:47.402Z,12.95
2023-04-16T17:18:14.418Z,13.13
2023-04-16T17:20:41.405Z,12.20
2023-04-16T17:23:08.402Z,13.10
2023-04-16T17:25:36.183Z,12.95
2023-04-16T17:28:03.940Z,12.02
2023-04-16T17:30:31.584Z,12.00
2023-04-16T17:32:58.833Z,11.20
2023-04-16T17:35:25.835Z,10.70
2023-04-16T17:37:52.851Z,11.07
2023-04-16T17:40:20.976Z,12.32
2023-04-16T17:42:49.888Z,11.23
2023-04-16T17:45:16.827Z,10.70
2023-04-16T17:47:46.978Z,11.65
2023-04-16T17:50:14.014Z,12.63
2023-04-16T17:52:41.200Z,13.50
2023-04-16T17:55:08.401Z,12.52
2023-04-16T17:57:35.477Z,12.82
2023-04-16T18:00:03.012Z,14.23
2023-04-16T18:02:40.745Z,14.38
2023-04-16T18:05:08.613Z,15.15
2023-04-16T18:07:36.440Z,15.23
2023-04-16T18:10:03.570Z,14.15
2023-04-16T18:12:30.819Z,13.55
2023-04-16T18:14:57.938Z,15.23
2023-04-16T18:17:25.022Z,13.00
2023-04-16T18:19:52.086Z,12.02
2023-04-16T18:22:18.996Z,13.30
2023-04-16T18:24:46.158Z,13.50
2023-04-16T18:27:13.245Z,13.10
2023-04-16T18:29:51.515Z,13.48
2023-04-16T18:32:18.743Z,13.20
2023-04-16T18:34:45.766Z,13.45
2023-04-16T18:37:12.893Z,12.15
2023-04-16T18:39:40.019Z,13.80
2023-04-16T18:42:07.097Z,13.20
2023-04-16T18:44:34.308Z,13.25
2023-04-16T18:47:01.502Z,11.95
2023-04-16T18:49:28.607Z,12.38
2023-04-16T18:51:55.947Z,12.63
2023-04-16T18:54:23.337Z,13.93
2023-04-16T18:56:50.443Z,12.80
2023-04-16T18:59:17.404Z,13.45
2023-04-16T19:01:47.771Z,13.10
2023-04-16T19:04:15.005Z,12.38
2023-04-16T19:06:42.149Z,13.27
2023-04-16T19:09:11.403Z,14.50
2023-04-16T19:11:38.658Z,14.02
2023-04-16T19:14:05.994Z,13.07
2023-04-16T19:16:33.237Z,13.10
2023-04-16T19:19:00.960Z,13.40
2023-04-16T19:21:28.274Z,12.63
2023-04-16T19:23:55.249Z,13.38
2023-04-16T19:26:22.399Z,18.05
2023-04-16T19:28:49.415Z,20.63
2023-04-16T19:31:16.489Z,18.15
2023-04-16T19:33:43.487Z,17.50
2023-04-16T19:36:10.478Z,16.83
2023-04-16T19:38:37.501Z,16.05
2023-04-16T19:41:04.601Z,18.05
2023-04-16T19:43:32.240Z,17.58
2023-04-16T19:45:59.370Z,16.58
2023-04-16T19:48:26.824Z,19.38
2023-04-16T19:50:53.816Z,18.88
2023-04-16T19:53:21.504Z,18.13
2023-04-16T19:55:48.460Z,17.55
2023-04-16T19:58:15.825Z,19.25
2023-04-16T20:00:43.502Z,18.88
2023-04-16T20:03:11.177Z,19.83
2023-04-16T20:05:38.220Z,19.65
2023-04-16T20:08:05.563Z,20.02
2023-04-16T20:10:38.294Z,19.17
2023-04-16T20:13:13.713Z,18.23
2023-04-16T20:15:42.071Z,18.80
2023-04-16T20:18:09.236Z,19.02
2023-04-16T20:20:37.960Z,18.85
2023-04-16T20:26:34.780Z,18.95
2023-04-16T20:29:01.907Z,19.10
2023-04-16T20:31:29.304Z,20.65
2023-04-16T20:33:56.674Z,20.27
2023-04-16T20:36:23.791Z,20.10
2023-04-16T20:38:53.817Z,18.88
2023-04-16T20:41:21.356Z,21.75
2023-04-16T20:43:50.299Z,21.40
2023-04-16T20:46:17.825Z,20.15
2023-04-16T20:48:45.046Z,17.75
2023-04-16T20:51:12.258Z,19.90
2023-04-16T20:53:39.318Z,18.50
2023-04-16T20:56:08.296Z,20.05
2023-04-16T20:58:35.517Z,18.77
2023-04-16T21:01:02.465Z,20.27
2023-04-16T21:03:29.606Z,20.20
2023-04-16T21:05:56.860Z,21.30
2023-04-16T21:08:24.504Z,20.23
2023-04-16T21:10:51.777Z,19.17
2023-04-16T21:13:20.712Z,20.58
2023-04-16T21:15:47.801Z,18.92
2023-04-16T21:18:14.940Z,18.70
2023-04-16T21:20:42.043Z,17.08
2023-04-16T21:23:09.001Z,18.83
2023-04-16T21:25:36.150Z,16.80
2023-04-16T21:28:03.235Z,17.63
2023-04-16T21:30:30.157Z,17.80
2023-04-16T21:32:57.146Z,16.42
2023-04-16T21:35:24.169Z,14.93
2023-04-16T21:37:51.248Z,20.05
2023-04-16T21:40:18.243Z,23.33
2023-04-16T21:42:45.320Z,22.55
2023-04-16T21:45:14.455Z,21.25
2023-04-16T21:47:41.381Z,20.35
2023-04-16T21:50:08.824Z,21.33
2023-04-16T21:52:40.420Z,20.45
2023-04-16T21:55:09.429Z,20.67
2023-04-16T21:57:36.372Z,19.00
2023-04-16T22:00:09.069Z,19.52
2023-04-16T22:02:36.206Z,19.23
2023-04-16T22:05:03.585Z,17.65
2023-04-16T22:07:30.758Z,20.02
2023-04-16T22:09:57.701Z,18.13
2023-04-16T22:12:24.728Z,19.35
2023-04-16T22:15:01.927Z,19.75
2023-04-16T22:17:30.161Z,20.63
2023-04-16T22:20:00.400Z,20.00
2023-04-16T22:22:27.374Z,18.52
2023-04-16T22:24:54.294Z,19.38
2023-04-16T22:27:21.411Z,18.05
2023-04-16T22:29:48.411Z,18.88
2023-04-16T22:32:15.789Z,18.08
2023-04-16T22:34:42.853Z,19.27
2023-04-16T22:37:09.870Z,18.98
2023-04-16T22:39:36.852Z,19.48
2023-04-16T22:42:03.928Z,19.27
2023-04-16T22:44:31.306Z,19.48
2023-04-16T22:46:58.493Z,20.08
2023-04-16T22:49:26.580Z,19.10
2023-04-16T22:51:53.591Z,19.52
2023-04-16T22:54:20.831Z,20.30
2023-04-16T22:56:48.590Z,19.98
2023-04-16T22:59:15.718Z,19.55
2023-04-16T23:01:42.940Z,18.70
2023-04-16T23:04:09.867Z,19.77
2023-04-16T23:06:36.931Z,19.90
2023-04-16T23:09:05.113Z,20.38
2023-04-16T23:11:32.097Z,20.00
2023-04-16T23:13:59.095Z,20.20
2023-04-16T23:16:27.160Z,21.55
2023-04-16T23:18:54.336Z,19.92
2023-04-16T23:21:21.324Z,20.15
2023-04-16T23:23:48.273Z,19.52
2023-04-16T23:26:15.498Z,19.08
2023-04-16T23:28:42.747Z,20.02
2023-04-16T23:31:09.845Z,19.88
2023-04-16T23:33:36.811Z,20.58
2023-04-16T23:36:03.930Z,19.85
2023-04-16T23:38:31.258Z,20.60
2023-04-16T23:40:58.233Z,19.85
2023-04-16T23:43:25.146Z,19.80
2023-04-16T23:45:52.128Z,20.95
2023-04-16T23:48:19.097Z,20.05
2023-04-16T23:50:46.058Z,22.05
2023-04-16T23:53:13.059Z,20.23
2023-04-16T23:55:40.184Z,21.05
2023-04-16T23:58:07.123Z,21.42
